createdAt,value
2023-03-15T00:00:52.089Z,19.70
2023-03-15T00:03:18.736Z,19.27
2023-03-15T00:05:47.466Z,23.48
2023-03-15T00:08:15.286Z,26.52
2023-03-15T00:10:43.066Z,24.35
2023-03-15T00:13:09.925Z,20.10
2023-03-15T00:15:37.333Z,21.65
2023-03-15T00:18:04.529Z,21.17
2023-03-15T00:20:31.309Z,22.95
2023-03-15T00:22:57.962Z,26.65
2023-03-15T00:25:24.537Z,20.45
2023-03-15T00:27:51.131Z,22.23
2023-03-15T00:30:17.788Z,27.08
2023-03-15T00:32:44.422Z,25.50
2023-03-15T00:35:12.839Z,19.88
2023-03-15T00:37:39.575Z,19.63
2023-03-15T00:40:07.571Z,23.88
2023-03-15T00:42:34.246Z,28.63
2023-03-15T00:45:00.916Z,27.02
2023-03-15T00:47:27.503Z,20.40
2023-03-15T00:49:54.600Z,25.90
2023-03-15T00:52:22.412Z,22.98
2023-03-15T00:54:55.812Z,26.52
2023-03-15T00:57:22.654Z,23.08
2023-03-15T00:59:49.298Z,20.02
2023-03-15T01:02:15.893Z,31.98
2023-03-15T01:04:42.818Z,21.42
2023-03-15T01:07:09.605Z,22.40
2023-03-15T01:09:37.676Z,20.83
2023-03-15T01:12:05.443Z,23.75
2023-03-15T01:14:32.112Z,23.55
2023-03-15T01:16:58.745Z,20.70
2023-03-15T01:19:25.392Z,25.85
2023-03-15T01:21:53.166Z,23.75
2023-03-15T01:24:20.269Z,21.02
2023-03-15T01:26:48.712Z,21.45
2023-03-15T01:29:17.735Z,28.13
2023-03-15T01:31:44.562Z,19.98
2023-03-15T01:34:11.237Z,19.77
2023-03-15T01:36:37.998Z,19.08
2023-03-15T01:39:04.964Z,16.05
2023-03-15T01:41:40.325Z,14.90
2023-03-15T01:44:12.311Z,23.17
2023-03-15T01:46:39.026Z,17.13
2023-03-15T01:49:17.655Z,14.80
2023-03-15T01:51:50.940Z,11.45
2023-03-15T01:54:36.896Z,17.80
2023-03-15T02:00:07.029Z,20.67
2023-03-15T02:02:47.042Z,26.42
2023-03-15T02:05:23.348Z,25.67
2023-03-15T02:07:51.010Z,25.20
2023-03-15T02:10:27.204Z,20.48
2023-03-15T02:12:56.136Z,26.50
2023-03-15T02:15:23.643Z,25.45
2023-03-15T02:17:50.470Z,25.52
2023-03-15T02:20:27.589Z,17.63
2023-03-15T02:23:00.542Z,32.88
2023-03-15T02:25:54.686Z,20.30
2023-03-15T02:28:22.221Z,15.20
2023-03-15T02:30:49.986Z,17.33
2023-03-15T02:33:25.075Z,14.20
2023-03-15T02:35:54.039Z,9.07
2023-03-15T02:38:22.473Z,13.18
2023-03-15T02:40:51.537Z,18.75
2023-03-15T02:43:22.383Z,13.98
2023-03-15T02:45:50.048Z,75.13
2023-03-15T02:48:17.976Z,13.90
2023-03-15T02:50:44.648Z,12.35
2023-03-15T02:53:12.189Z,14.65
2023-03-15T02:55:39.138Z,15.38
2023-03-15T02:58:06.381Z,20.20
2023-03-15T03:00:33.361Z,21.65
2023-03-15T03:02:59.937Z,19.30
2023-03-15T03:05:27.046Z,30.38
2023-03-15T03:07:53.908Z,24.65
2023-03-15T03:10:21.167Z,26.25
2023-03-15T03:12:53.460Z,26.13
2023-03-15T03:15:25.888Z,26.92
2023-03-15T03:17:54.377Z,24.83
2023-03-15T03:20:23.240Z,31.25
2023-03-15T03:22:49.899Z,34.70
2023-03-15T03:25:17.977Z,35.45
2023-03-15T03:27:46.780Z,49.70
2023-03-15T03:30:14.831Z,47.35
2023-03-15T03:32:47.713Z,48.28
2023-03-15T03:35:16.113Z,50.92
2023-03-15T03:37:43.328Z,54.88
2023-03-15T03:40:17.645Z,54.28
2023-03-15T03:42:44.850Z,66.88
2023-03-15T03:45:17.664Z,62.22
2023-03-15T03:47:46.433Z,74.22
2023-03-15T03:50:13.035Z,87.40
2023-03-15T03:52:43.684Z,88.85
2023-03-15T03:55:14.885Z,75.88
2023-03-15T03:57:43.610Z,67.70
2023-03-15T04:00:15.799Z,81.70
2023-03-15T04:02:43.225Z,85.05
2023-03-15T04:05:12.273Z,85.15
2023-03-15T04:07:39.526Z,76.40
2023-03-15T04:10:07.690Z,81.60
2023-03-15T04:12:35.296Z,100.80
2023-03-15T04:15:02.173Z,78.05
2023-03-15T04:17:32.393Z,93.32
2023-03-15T04:20:01.727Z,108.63
2023-03-15T04:22:29.771Z,98.63
2023-03-15T04:25:02.650Z,110.65
2023-03-15T04:27:40.662Z,102.80
2023-03-15T04:30:19.040Z,99.40
2023-03-15T04:32:58.905Z,104.50
2023-03-15T04:35:43.625Z,105.10
2023-03-15T04:38:35.309Z,93.35
2023-03-15T04:41:21.506Z,105.00
2023-03-15T04:44:08.789Z,104.05
2023-03-15T04:46:38.359Z,110.82
2023-03-15T04:49:18.681Z,117.15
2023-03-15T04:51:55.698Z,110.50
2023-03-15T04:54:46.483Z,119.07
2023-03-15T04:57:39.933Z,124.20
2023-03-15T05:00:15.149Z,114.28
2023-03-15T05:03:01.662Z,106.13
2023-03-15T05:05:48.580Z,98.90
2023-03-15T05:08:37.284Z,89.07
2023-03-15T05:11:13.072Z,93.63
2023-03-15T05:13:58.363Z,100.25
2023-03-15T05:16:55.852Z,107.28
2023-03-15T05:19:42.758Z,111.55
2023-03-15T05:22:28.180Z,102.13
2023-03-15T05:25:17.384Z,123.13
2023-03-15T05:28:05.474Z,117.55
2023-03-15T05:30:51.993Z,116.78
2023-03-15T05:33:46.834Z,127.25
2023-03-15T05:36:36.344Z,122.70
2023-03-15T05:39:34.516Z,108.53
2023-03-15T05:42:25.997Z,109.75
2023-03-15T05:45:00.116Z,79.35
2023-03-15T05:47:38.939Z,87.03
2023-03-15T05:50:23.727Z,63.57
2023-03-15T05:55:44.742Z,53.35
2023-03-15T05:58:36.236Z,60.15
2023-03-15T06:01:24.164Z,55.15
2023-03-15T06:04:07.078Z,51.60
2023-03-15T06:06:35.021Z,52.20
2023-03-15T06:09:04.502Z,48.45
2023-03-15T06:11:31.246Z,47.40
2023-03-15T06:13:59.447Z,46.42
2023-03-15T06:16:41.259Z,42.58
2023-03-15T06:19:08.371Z,34.17
2023-03-15T06:21:35.238Z,37.50
2023-03-15T06:24:06.456Z,37.13
2023-03-15T06:26:34.533Z,33.85
2023-03-15T06:29:03.531Z,34.42
2023-03-15T06:31:30.310Z,35.20
2023-03-15T06:34:02.593Z,32.30
2023-03-15T06:36:31.290Z,34.38
2023-03-15T06:38:58.110Z,34.60
2023-03-15T06:41:24.788Z,34.70
2023-03-15T06:43:56.680Z,32.70
2023-03-15T06:46:23.378Z,44.13
2023-03-15T06:48:49.990Z,33.50
2023-03-15T06:51:17.061Z,36.78
2023-03-15T06:53:43.760Z,33.05
2023-03-15T06:56:10.780Z,27.75
2023-03-15T06:58:37.484Z,27.25
2023-03-15T07:01:04.708Z,29.35
2023-03-15T07:03:31.542Z,32.90
2023-03-15T07:05:58.335Z,30.45
2023-03-15T07:08:25.884Z,30.92
2023-03-15T07:10:52.612Z,22.25
2023-03-15T07:13:19.976Z,29.55
2023-03-15T07:15:50.900Z,28.20
2023-03-15T07:18:17.824Z,25.33
2023-03-15T07:20:44.468Z,28.10
2023-03-15T07:23:11.212Z,23.25
2023-03-15T07:25:54.129Z,26.90
2023-03-15T07:28:22.751Z,25.80
2023-03-15T07:30:57.592Z,22.45
2023-03-15T07:35:55.872Z,24.33
2023-03-15T07:38:25.093Z,20.77
2023-03-15T07:40:52.123Z,21.65
2023-03-15T07:43:19.416Z,28.27
2023-03-15T07:45:49.981Z,20.20
2023-03-15T07:48:16.874Z,28.42
2023-03-15T07:50:43.598Z,32.90
2023-03-15T07:53:10.250Z,37.90
2023-03-15T07:55:37.009Z,26.27
2023-03-15T07:58:04.860Z,23.25
2023-03-15T08:00:32.104Z,27.55
2023-03-15T08:02:59.370Z,25.30
2023-03-15T08:05:28.852Z,26.65
2023-03-15T08:07:56.515Z,49.70
2023-03-15T08:10:23.390Z,28.15
2023-03-15T08:12:50.123Z,25.35
2023-03-15T08:15:16.959Z,25.13
2023-03-15T08:17:44.040Z,29.95
2023-03-15T08:20:11.577Z,28.73
2023-03-15T08:22:39.016Z,21.17
2023-03-15T08:25:06.510Z,26.80
2023-03-15T08:27:33.232Z,28.00
2023-03-15T08:29:59.937Z,24.48
2023-03-15T08:32:26.796Z,27.17
2023-03-15T08:34:53.497Z,29.13
2023-03-15T08:37:20.940Z,19.95
2023-03-15T08:39:47.562Z,28.85
2023-03-15T08:42:14.192Z,28.80
2023-03-15T08:44:40.926Z,27.55
2023-03-15T08:47:07.778Z,24.30
2023-03-15T08:49:35.923Z,25.85
2023-03-15T08:52:02.812Z,23.83
2023-03-15T08:54:29.422Z,27.23
2023-03-15T08:56:56.041Z,28.05
2023-03-15T08:59:31.690Z,20.00
2023-03-15T09:02:00.450Z,25.95
2023-03-15T09:04:27.799Z,27.63
2023-03-15T09:06:54.942Z,28.10
2023-03-15T09:09:22.145Z,29.85
2023-03-15T09:11:48.934Z,30.65
2023-03-15T09:14:15.977Z,26.50
2023-03-15T09:16:42.740Z,27.27
2023-03-15T09:19:09.777Z,27.08
2023-03-15T09:21:36.567Z,25.67
2023-03-15T09:24:03.489Z,33.45
2023-03-15T09:26:30.528Z,25.92
2023-03-15T09:28:57.197Z,35.55
2023-03-15T09:31:24.789Z,34.45
2023-03-15T09:33:51.553Z,32.60
2023-03-15T09:36:18.233Z,30.58
2023-03-15T09:38:44.896Z,22.67
2023-03-15T09:41:20.955Z,23.23
2023-03-15T09:43:59.067Z,23.02
2023-03-15T09:46:30.017Z,23.42
2023-03-15T09:49:34.323Z,31.35
2023-03-15T09:52:09.743Z,29.92
2023-03-15T09:54:57.371Z,31.55
2023-03-15T09:58:03.792Z,29.17
2023-03-15T10:00:38.248Z,27.92
2023-03-15T10:03:09.705Z,25.60
2023-03-15T10:05:41.608Z,26.27
2023-03-15T10:08:19.068Z,22.30
2023-03-15T10:11:08.620Z,23.88
2023-03-15T10:13:38.687Z,25.27
2023-03-15T10:16:20.439Z,29.83
2023-03-15T10:18:56.002Z,30.73
2023-03-15T10:21:31.569Z,27.92
2023-03-15T10:23:59.546Z,23.83
2023-03-15T10:26:32.679Z,26.95
2023-03-15T10:29:02.304Z,26.25
2023-03-15T10:31:44.038Z,27.90
2023-03-15T10:34:12.830Z,30.52
2023-03-15T10:36:49.747Z,29.70
2023-03-15T10:39:16.803Z,39.33
2023-03-15T10:41:46.361Z,37.20
2023-03-15T10:44:16.685Z,34.60
2023-03-15T10:47:04.671Z,28.90
2023-03-15T10:49:39.016Z,32.38
2023-03-15T10:52:06.148Z,31.55
2023-03-15T10:54:34.755Z,36.65
2023-03-15T10:57:12.152Z,39.15
2023-03-15T11:00:17.208Z,39.97
2023-03-15T11:02:52.374Z,36.60
2023-03-15T11:05:20.016Z,40.40
2023-03-15T11:07:58.816Z,33.95
2023-03-15T11:10:28.983Z,38.40
2023-03-15T11:13:13.739Z,30.45
2023-03-15T11:15:55.880Z,33.72
2023-03-15T11:18:30.833Z,31.80
2023-03-15T11:23:28.951Z,33.17
2023-03-15T11:25:56.454Z,35.30
2023-03-15T11:28:27.553Z,36.60
2023-03-15T11:30:55.586Z,37.45
2023-03-15T11:33:33.917Z,34.17
2023-03-15T11:36:05.149Z,35.05
2023-03-15T11:38:41.872Z,34.58
2023-03-15T11:41:29.728Z,36.30
2023-03-15T11:44:27.563Z,37.20
2023-03-15T11:47:08.041Z,37.00
2023-03-15T11:49:43.671Z,39.38
2023-03-15T11:52:10.814Z,40.75
2023-03-15T11:54:37.923Z,35.15
2023-03-15T11:57:09.949Z,46.53
2023-03-15T11:59:40.384Z,36.33
2023-03-15T12:02:10.262Z,48.42
2023-03-15T12:04:40.150Z,45.17
2023-03-15T12:07:31.287Z,46.47
2023-03-15T12:10:19.574Z,40.30
2023-03-15T12:12:56.401Z,45.95
2023-03-15T12:15:23.022Z,44.35
2023-03-15T12:17:58.962Z,48.28
2023-03-15T12:20:39.032Z,45.55
2023-03-15T12:23:17.997Z,44.92
2023-03-15T12:25:55.790Z,43.35
2023-03-15T12:28:28.586Z,43.03
2023-03-15T12:30:59.342Z,43.05
2023-03-15T12:33:28.871Z,43.63
2023-03-15T12:36:01.350Z,42.72
2023-03-15T12:38:36.572Z,40.90
2023-03-15T12:41:08.024Z,43.95
2023-03-15T12:43:45.006Z,47.63
2023-03-15T12:46:36.743Z,47.67
2023-03-15T12:49:24.630Z,48.15
2023-03-15T12:52:03.989Z,40.53
2023-03-15T12:54:48.893Z,41.10
2023-03-15T12:57:37.492Z,49.35
2023-03-15T13:00:15.900Z,54.13
2023-03-15T13:02:49.430Z,43.88
2023-03-15T13:05:20.959Z,36.75
2023-03-15T13:07:52.260Z,41.95
2023-03-15T13:10:46.870Z,47.15
2023-03-15T13:13:38.221Z,46.15
2023-03-15T13:16:43.512Z,35.58
2023-03-15T13:19:42.455Z,45.08
2023-03-15T13:22:14.882Z,49.55
2023-03-15T13:24:59.639Z,50.25
2023-03-15T13:27:41.471Z,49.72
2023-03-15T13:30:28.371Z,47.85
2023-03-15T13:33:20.912Z,47.00
2023-03-15T13:36:00.212Z,49.85
2023-03-15T13:38:46.334Z,46.67
2023-03-15T13:41:24.125Z,45.15
2023-03-15T13:43:52.933Z,46.72
2023-03-15T13:46:25.051Z,46.78
2023-03-15T13:48:53.632Z,48.10
2023-03-15T13:51:25.189Z,51.75
2023-03-15T13:54:03.172Z,43.58
2023-03-15T13:56:46.831Z,48.80
2023-03-15T13:59:15.660Z,46.40
2023-03-15T14:01:42.977Z,50.55
2023-03-15T14:04:17.774Z,47.28
2023-03-15T14:06:45.683Z,47.67
2023-03-15T14:09:25.848Z,47.55
2023-03-15T14:12:07.034Z,47.75
2023-03-15T14:14:38.557Z,48.20
2023-03-15T14:17:20.626Z,49.22
2023-03-15T14:19:54.816Z,48.17
2023-03-15T14:22:21.617Z,48.70
2023-03-15T14:24:51.003Z,47.15
2023-03-15T14:27:25.042Z,47.55
2023-03-15T14:29:54.314Z,46.47
2023-03-15T14:32:27.350Z,46.95
2023-03-15T14:35:02.239Z,49.20
2023-03-15T14:37:41.301Z,39.70
2023-03-15T14:40:30.313Z,54.72
2023-03-15T14:42:56.968Z,49.92
2023-03-15T14:45:23.842Z,48.08
2023-03-15T14:47:58.064Z,46.45
2023-03-15T14:50:36.983Z,46.55
2023-03-15T14:53:04.916Z,46.70
2023-03-15T14:55:35.011Z,44.72
2023-03-15T14:58:11.416Z,43.95
2023-03-15T15:00:38.439Z,43.13
2023-03-15T15:03:13.621Z,42.58
2023-03-15T15:05:41.372Z,41.47
2023-03-15T15:08:13.097Z,39.28
2023-03-15T15:10:41.326Z,39.42
2023-03-15T15:13:22.897Z,40.33
2023-03-15T15:15:55.596Z,39.40
2023-03-15T15:18:25.654Z,38.65
2023-03-15T15:20:55.631Z,39.85
2023-03-15T15:23:26.676Z,39.30
2023-03-15T15:25:57.839Z,37.83
2023-03-15T15:28:34.648Z,36.15
2023-03-15T15:31:04.208Z,43.80
2023-03-15T15:33:31.526Z,48.25
2023-03-15T15:35:58.196Z,41.60
2023-03-15T15:38:32.892Z,36.00
2023-03-15T15:40:59.754Z,43.45
2023-03-15T15:43:26.581Z,30.23
2023-03-15T15:45:53.283Z,33.35
2023-03-15T15:48:20.346Z,33.63
2023-03-15T15:50:47.057Z,34.50
2023-03-15T15:53:17.927Z,34.90
2023-03-15T15:55:45.665Z,36.13
2023-03-15T15:58:13.284Z,39.25
2023-03-15T16:00:40.000Z,39.10
2023-03-15T16:03:16.870Z,36.05
2023-03-15T16:05:43.967Z,38.88
2023-03-15T16:08:22.424Z,79.82
2023-03-15T16:10:49.230Z,76.25
2023-03-15T16:13:16.125Z,40.38
2023-03-15T16:15:43.004Z,41.72
2023-03-15T16:18:11.408Z,39.20
2023-03-15T16:20:40.527Z,42.40
2023-03-15T16:23:13.162Z,43.33
2023-03-15T16:25:42.109Z,37.97
2023-03-15T16:28:11.184Z,41.40
2023-03-15T16:30:37.907Z,42.42
2023-03-15T16:33:14.238Z,43.17
2023-03-15T16:35:41.020Z,50.42
2023-03-15T16:38:14.586Z,40.20
2023-03-15T16:40:45.174Z,41.88
2023-03-15T16:43:13.619Z,40.78
2023-03-15T16:45:40.652Z,45.63
2023-03-15T16:48:07.474Z,45.53
2023-03-15T16:50:35.404Z,45.13
2023-03-15T16:53:05.252Z,46.25
2023-03-15T16:55:35.149Z,45.15
2023-03-15T16:58:04.268Z,44.65
2023-03-15T17:00:31.587Z,45.95
2023-03-15T17:03:01.452Z,46.25
2023-03-15T17:05:28.455Z,45.10
2023-03-15T17:07:55.775Z,44.20
2023-03-15T17:10:29.023Z,44.38
2023-03-15T17:12:57.327Z,58.40
2023-03-15T17:15:25.724Z,45.08
2023-03-15T17:17:53.645Z,42.53
2023-03-15T17:20:28.246Z,43.22
2023-03-15T17:23:04.360Z,28.88
2023-03-15T17:25:32.368Z,31.45
2023-03-15T17:28:00.140Z,32.70
2023-03-15T17:30:32.135Z,33.55
2023-03-15T17:32:59.547Z,38.92
2023-03-15T17:35:33.870Z,56.80
2023-03-15T17:38:02.626Z,48.80
2023-03-15T17:40:31.384Z,91.93
2023-03-15T17:43:00.708Z,55.03
2023-03-15T17:45:32.943Z,49.92
2023-03-15T17:48:00.951Z,45.83
2023-03-15T17:50:30.332Z,48.38
2023-03-15T17:53:00.525Z,44.97
2023-03-15T17:55:29.006Z,38.22
2023-03-15T17:57:55.948Z,48.13
2023-03-15T18:00:24.738Z,60.97
2023-03-15T18:02:56.352Z,49.00
2023-03-15T18:05:25.575Z,32.33
2023-03-15T18:08:00.476Z,26.55
2023-03-15T18:10:34.536Z,33.53
2023-03-15T18:13:01.297Z,40.65
2023-03-15T18:15:28.042Z,53.10
2023-03-15T18:17:54.695Z,46.72
2023-03-15T18:20:23.610Z,85.72
2023-03-15T18:22:50.600Z,73.57
2023-03-15T18:25:24.943Z,70.00
2023-03-15T18:27:52.025Z,40.55
2023-03-15T18:30:21.808Z,36.38
2023-03-15T18:32:49.569Z,23.77
2023-03-15T18:35:23.626Z,26.23
2023-03-15T18:37:50.634Z,34.38
2023-03-15T18:40:19.604Z,29.88
2023-03-15T18:42:46.233Z,22.65
2023-03-15T18:45:28.540Z,19.38
2023-03-15T18:47:55.621Z,18.30
2023-03-15T18:50:22.937Z,18.30
2023-03-15T18:52:50.355Z,19.25
2023-03-15T18:55:19.214Z,20.88
2023-03-15T18:57:46.352Z,16.35
2023-03-15T19:00:16.801Z,14.95
2023-03-15T19:02:46.657Z,15.50
2023-03-15T19:05:14.297Z,14.73
2023-03-15T19:07:41.750Z,16.30
2023-03-15T19:10:11.715Z,15.68
2023-03-15T19:12:39.710Z,14.82
2023-03-15T19:15:10.506Z,18.40
2023-03-15T19:17:38.725Z,16.05
2023-03-15T19:20:07.593Z,17.52
2023-03-15T19:22:34.987Z,12.95
2023-03-15T19:25:01.925Z,12.32
2023-03-15T19:27:28.789Z,14.30
2023-03-15T19:29:55.542Z,21.85
2023-03-15T19:32:22.420Z,16.90
2023-03-15T19:34:49.163Z,17.92
2023-03-15T19:37:15.837Z,14.45
2023-03-15T19:39:42.513Z,19.10
2023-03-15T19:42:09.239Z,20.50
2023-03-15T19:44:36.043Z,17.92
2023-03-15T19:47:02.767Z,12.85
2023-03-15T19:49:29.461Z,11.63
2023-03-15T19:51:56.118Z,13.05
2023-03-15T19:54:22.780Z,14.20
2023-03-15T19:56:49.390Z,15.45
2023-03-15T19:59:16.052Z,14.70
2023-03-15T20:01:42.770Z,20.02
2023-03-15T20:04:09.510Z,29.58
2023-03-15T20:06:36.298Z,29.92
2023-03-15T20:09:03.760Z,27.50
2023-03-15T20:11:30.406Z,23.15
2023-03-15T20:13:57.076Z,20.17
2023-03-15T20:16:23.906Z,14.05
2023-03-15T20:18:55.572Z,15.73
2023-03-15T20:21:22.424Z,11.45
2023-03-15T20:23:49.405Z,11.57
2023-03-15T20:26:17.688Z,18.10
2023-03-15T20:28:44.786Z,27.17
2023-03-15T20:31:17.206Z,29.52
2023-03-15T20:33:47.131Z,33.25
2023-03-15T20:36:15.367Z,25.55
2023-03-15T20:38:42.121Z,15.32
2023-03-15T20:41:08.853Z,14.90
2023-03-15T20:43:35.788Z,22.90
2023-03-15T20:46:04.007Z,14.55
2023-03-15T20:48:32.175Z,12.13
2023-03-15T20:50:58.972Z,12.73
2023-03-15T20:53:26.137Z,10.45
2023-03-15T20:55:52.805Z,27.27
2023-03-15T20:58:19.470Z,53.40
2023-03-15T21:00:46.162Z,36.55
2023-03-15T21:03:14.740Z,19.73
2023-03-15T21:05:43.349Z,18.05
2023-03-15T21:08:10.422Z,16.73
2023-03-15T21:10:38.027Z,15.82
2023-03-15T21:13:09.523Z,11.63
2023-03-15T21:15:45.720Z,11.88
2023-03-15T21:18:14.669Z,12.48
2023-03-15T21:20:41.518Z,12.90
2023-03-15T21:23:08.983Z,12.63
2023-03-15T21:25:36.414Z,11.15
2023-03-15T21:28:04.164Z,12.73
2023-03-15T21:30:31.110Z,18.58
2023-03-15T21:32:58.176Z,10.20
2023-03-15T21:35:25.437Z,9.15
2023-03-15T21:37:52.159Z,9.73
2023-03-15T21:40:18.865Z,8.15
2023-03-15T21:42:47.514Z,11.82
2023-03-15T21:45:14.386Z,16.75
2023-03-15T21:47:41.392Z,12.52
2023-03-15T21:50:09.532Z,14.35
2023-03-15T21:52:36.129Z,14.52
2023-03-15T21:55:03.270Z,13.43
2023-03-15T21:57:29.915Z,10.48
2023-03-15T21:59:56.542Z,9.80
2023-03-15T22:02:23.147Z,9.45
2023-03-15T22:04:49.919Z,10.02
2023-03-15T22:07:16.671Z,9.48
2023-03-15T22:09:43.413Z,10.15
2023-03-15T22:12:10.342Z,10.65
2023-03-15T22:14:37.201Z,19.90
2023-03-15T22:17:04.524Z,17.58
2023-03-15T22:19:32.081Z,10.55
2023-03-15T22:21:58.868Z,10.00
2023-03-15T22:24:25.474Z,9.70
2023-03-15T22:26:53.001Z,9.27
2023-03-15T22:29:19.757Z,9.55
2023-03-15T22:31:46.393Z,11.43
2023-03-15T22:34:13.164Z,8.98
2023-03-15T22:36:39.887Z,9.48
2023-03-15T22:39:07.486Z,9.32
2023-03-15T22:41:34.248Z,9.27
2023-03-15T22:44:01.027Z,10.30
2023-03-15T22:46:28.379Z,9.77
2023-03-15T22:48:55.247Z,10.95
2023-03-15T22:51:21.935Z,10.52
2023-03-15T22:53:48.583Z,11.82
2023-03-15T22:56:15.351Z,10.88
2023-03-15T22:58:42.406Z,13.45
2023-03-15T23:01:10.080Z,11.02
2023-03-15T23:03:37.058Z,13.85
2023-03-15T23:06:04.001Z,13.13
2023-03-15T23:08:30.827Z,12.68
2023-03-15T23:10:58.478Z,12.02
2023-03-15T23:13:25.211Z,11.52
2023-03-15T23:15:51.871Z,10.75
2023-03-15T23:18:18.508Z,11.20
2023-03-15T23:20:45.225Z,10.00
2023-03-15T23:23:11.835Z,10.80
2023-03-15T23:25:39.635Z,10.02
2023-03-15T23:28:06.718Z,9.77
2023-03-15T23:30:35.748Z,10.63
2023-03-15T23:33:03.596Z,9.55
2023-03-15T23:35:31.330Z,9.55
2023-03-15T23:37:58.134Z,12.50
2023-03-15T23:40:25.681Z,9.90
2023-03-15T23:42:58.518Z,10.57
2023-03-15T23:45:27.082Z,11.35
2023-03-15T23:47:53.788Z,25.17
2023-03-15T23:50:20.697Z,20.90
2023-03-15T23:52:47.281Z,18.23
2023-03-15T23:55:13.941Z,15.70
2023-03-15T23:57:41.269Z,16.80
